createdAt,value
2023-01-11T00:25:34.200Z,52.12
2023-01-11T00:45:35.027Z,52.12
2023-01-11T01:05:34.937Z,52.13
2023-01-11T01:25:34.914Z,52.13
2023-01-11T01:45:34.896Z,52.14
2023-01-11T02:05:34.887Z,52.14
2023-01-11T03:05:34.851Z,52.12
2023-01-11T03:25:34.309Z,52.13
2023-01-11T03:45:34.296Z,52.13
2023-01-11T04:05:34.987Z,52.11
2023-01-11T04:25:34.815Z,52.12
2023-01-11T05:05:34.789Z,52.14
2023-01-11T05:25:34.736Z,52.14
2023-01-11T05:45:34.797Z,52.15
2023-01-11T06:05:34.719Z,52.18
2023-01-11T06:25:34.688Z,52.27
2023-01-11T06:45:34.686Z,52.34
2023-01-11T07:05:34.194Z,52.43
2023-01-11T07:25:34.679Z,52.52
2023-01-11T08:05:34.642Z,52.82
2023-01-11T08:25:34.592Z,53
2023-01-11T08:45:34.583Z,53.22
2023-01-11T09:05:34.567Z,53.48
2023-01-11T09:25:34.558Z,53.67
2023-01-11T09:45:34.554Z,53.84
2023-01-11T10:05:34.583Z,54.1
2023-01-11T10:25:34.534Z,54.23
2023-01-11T10:45:34.513Z,54.45
2023-01-11T11:05:34.478Z,54.47
2023-01-11T11:25:34.510Z,54.47
2023-01-11T11:45:34.494Z,54.48
2023-01-11T12:05:34.416Z,54.49
2023-01-11T12:45:33.614Z,54.52
2023-01-11T13:05:33.839Z,54.51
2023-01-11T13:25:34.401Z,54.52
2023-01-11T13:45:34.314Z,54.52
2023-01-11T14:05:34.299Z,54.54
2023-01-11T14:25:34.259Z,54.54
2023-01-11T14:45:33.762Z,54.54
2023-01-11T15:05:34.242Z,54.59
2023-01-11T15:25:34.102Z,54.66
2023-01-11T15:45:34.209Z,54.55
2023-01-11T16:05:34.193Z,54.55
2023-01-11T16:25:34.184Z,54.56
2023-01-11T16:45:34.197Z,54.53
2023-01-11T17:05:34.162Z,54.54
2023-01-11T17:45:34.159Z,54.56
2023-01-11T18:05:33.332Z,54.57
2023-01-11T18:25:34.146Z,54.56
2023-01-11T18:45:34.083Z,54.57
2023-01-11T19:05:34.074Z,54.57
2023-01-11T19:25:33.913Z,54.57
2023-01-11T19:45:34.057Z,54.57
2023-01-11T20:05:33.889Z,54.57
2023-01-11T20:25:33.240Z,54.58
2023-01-11T20:45:33.999Z,54.58
2023-01-11T21:25:34.007Z,54.57
2023-01-11T21:45:32.821Z,54.58
2023-01-11T22:05:33.935Z,54.57
2023-01-11T22:25:33.925Z,54.58
2023-01-11T22:45:33.956Z,54.58
2023-01-11T23:05:33.771Z,54.58
2023-01-11T23:25:33.891Z,54.58
2023-01-11T23:45:33.100Z,54.58
